Time;durP1;ratioP1;P1;durP2;ratioP2;P2;SDS_P1;SDS_P2;PMS_P1;PMS_P2;Temp;Humidity;BMP_temperature;BMP_pressure;BME280_temperature;BME280_humidity;BME280_pressure;Samples;Min_cycle;Max_cycle;Signal;HPM_P1;HPM_P2
2024/02/10 00:01:03;;;;;;;1.80;1.20;;;20.80;45.30;;;;;;5032495;28;20034;-58
2024/02/10 00:03:30;;;;;;;2.28;1.13;;;20.80;45.30;;;;;;5032754;28;20084;-57
2024/02/10 00:06:00;;;;;;;1.98;1.10;;;20.80;45.30;;;;;;5032438;28;20048;-57
2024/02/10 00:08:27;;;;;;;1.65;1.08;;;20.80;45.30;;;;;;5032713;28;20044;-58
2024/02/10 00:10:55;;;;;;;1.58;0.90;;;20.80;45.30;;;;;;5031557;28;20104;-57
2024/02/10 00:13:21;;;;;;;2.47;1.13;;;20.70;45.30;;;;;;5031483;28;20087;-56
2024/02/10 00:15:49;;;;;;;2.33;1.30;;;20.70;45.40;;;;;;5032203;28;20033;-57
2024/02/10 00:18:18;;;;;;;1.42;1.10;;;20.70;45.40;;;;;;5031272;28;20041;-58
2024/02/10 00:20:45;;;;;;;2.95;1.67;;;20.70;45.40;;;;;;5050139;28;20049;-58
2024/02/10 00:23:11;;;;;;;1.92;0.93;;;20.70;45.40;;;;;;5052648;28;20037;-57
2024/02/10 00:25:38;;;;;;;2.20;1.25;;;20.70;45.40;;;;;;5034424;28;20372;-56
2024/02/10 00:28:06;;;;;;;1.70;1.05;;;20.70;45.40;;;;;;5051233;28;20120;-56
2024/02/10 00:30:32;;;;;;;3.33;1.10;;;20.70;45.40;;;;;;5053482;28;20048;-55
2024/02/10 00:32:59;;;;;;;2.45;1.23;;;20.70;45.50;;;;;;5051516;28;20025;-57
2024/02/10 00:35:25;;;;;;;4.30;1.25;;;20.70;45.50;;;;;;5051200;28;20039;-59
2024/02/10 00:37:56;;;;;;;2.40;1.00;;;20.70;45.50;;;;;;5051635;28;20067;-61
2024/02/10 00:40:22;;;;;;;2.20;1.00;;;20.70;45.50;;;;;;5052006;28;20025;-59
2024/02/10 00:42:51;;;;;;;1.60;1.02;;;20.70;45.50;;;;;;5053175;28;20037;-57
2024/02/10 00:45:17;;;;;;;2.17;1.23;;;20.70;45.50;;;;;;5055444;28;20123;-56
2024/02/10 00:47:44;;;;;;;3.00;0.98;;;20.60;45.50;;;;;;5056268;28;20440;-56
2024/02/10 00:50:15;;;;;;;1.80;1.00;;;20.70;45.60;;;;;;5055427;28;20041;-57
2024/02/10 00:52:46;;;;;;;3.30;1.08;;;20.60;45.50;;;;;;5056516;28;20097;-57
2024/02/10 00:55:13;;;;;;;2.22;1.08;;;20.60;45.50;;;;;;5055680;28;20059;-59
2024/02/10 00:57:40;;;;;;;2.08;1.00;;;20.60;45.60;;;;;;5054135;28;20090;-56
2024/02/10 01:00:10;;;;;;;3.20;1.65;;;20.60;45.60;;;;;;5056098;28;20028;-57
2024/02/10 01:02:37;;;;;;;3.42;1.30;;;20.60;45.60;;;;;;5055383;28;20390;-59
2024/02/10 01:05:05;;;;;;;3.05;1.20;;;20.60;45.60;;;;;;5055965;28;20044;-57
2024/02/10 01:07:31;;;;;;;2.22;1.13;;;20.60;45.60;;;;;;5055326;28;20047;-58
2024/02/10 01:09:57;;;;;;;1.45;1.05;;;20.60;45.60;;;;;;5055671;28;20025;-56
2024/02/10 01:12:22;;;;;;;2.25;1.15;;;20.60;45.70;;;;;;5055163;28;20497;-58
2024/02/10 01:14:50;;;;;;;2.80;1.20;;;20.60;45.70;;;;;;5055493;28;20044;-59
2024/02/10 01:17:16;;;;;;;1.88;1.10;;;20.60;45.70;;;;;;5056275;28;20035;-58
2024/02/10 01:19:51;;;;;;;1.80;1.08;;;20.60;45.70;;;;;;5055156;28;20128;-57
2024/02/10 01:22:22;;;;;;;2.05;0.95;;;20.60;45.80;;;;;;5055473;28;20055;-52
2024/02/10 01:24:53;;;;;;;2.05;1.02;;;20.60;45.90;;;;;;5055387;28;20437;-58
2024/02/10 01:27:21;;;;;;;1.63;1.00;;;20.60;45.80;;;;;;5053833;28;20025;-57
2024/02/10 01:29:50;;;;;;;2.30;1.10;;;20.60;45.80;;;;;;5055096;28;20094;-57
2024/02/10 01:32:19;;;;;;;2.15;1.13;;;20.60;45.80;;;;;;5055337;28;20056;-58
2024/02/10 01:34:49;;;;;;;3.03;1.30;;;20.60;45.90;;;;;;5053719;28;20029;-57
2024/02/10 01:37:19;;;;;;;1.90;1.20;;;20.60;45.90;;;;;;5054919;28;20410;-54
2024/02/10 01:39:49;;;;;;;1.67;0.80;;;20.60;45.90;;;;;;5055056;28;20029;-56
2024/02/10 01:42:19;;;;;;;1.23;0.90;;;20.60;45.90;;;;;;5055182;28;20098;-58
2024/02/10 01:44:45;;;;;;;1.42;0.80;;;20.50;45.90;;;;;;5052777;28;20021;-56
2024/02/10 01:47:13;;;;;;;2.38;1.05;;;20.50;45.90;;;;;;5055198;28;20040;-55
2024/02/10 01:49:43;;;;;;;2.47;1.05;;;20.50;45.90;;;;;;5054878;28;20128;-59
2024/02/10 01:52:11;;;;;;;2.25;0.90;;;20.50;46.00;;;;;;5052993;28;20067;-56
2024/02/10 01:54:38;;;;;;;2.70;1.02;;;20.50;46.00;;;;;;5054681;28;20115;-57
2024/02/10 01:57:08;;;;;;;1.45;0.90;;;20.50;46.00;;;;;;5055165;28;20041;-56
2024/02/10 01:59:35;;;;;;;1.88;0.85;;;20.50;46.00;;;;;;5052724;28;20025;-55
2024/02/10 02:02:03;;;;;;;1.75;1.00;;;20.50;46.00;;;;;;5055239;28;20118;-57
2024/02/10 02:04:36;;;;;;;2.00;1.10;;;20.50;46.00;;;;;;5054882;28;20515;-58
2024/02/10 02:07:08;;;;;;;1.85;1.10;;;20.50;46.00;;;;;;5052881;28;20033;-57
2024/02/10 02:09:35;;;;;;;1.27;0.90;;;20.50;46.00;;;;;;5036948;28;20025;-55
2024/02/10 02:12:08;;;;;;;1.05;0.95;;;20.40;45.90;;;;;;5052468;28;20446;-58
2024/02/10 02:14:36;;;;;;;1.40;0.95;;;20.50;46.00;;;;;;5054299;28;20540;-58
2024/02/10 02:17:04;;;;;;;1.27;0.77;;;20.50;46.00;;;;;;5054160;28;20116;-58
2024/02/10 02:19:32;;;;;;;2.92;1.00;;;20.40;46.00;;;;;;5054452;28;20371;-58
2024/02/10 02:22:00;;;;;;;1.08;0.73;;;20.40;46.00;;;;;;5054672;28;20110;-58
2024/02/10 02:24:28;;;;;;;1.50;0.95;;;20.40;46.00;;;;;;5052612;28;20093;-58
2024/02/10 02:26:55;;;;;;;1.50;1.00;;;20.50;46.10;;;;;;5054977;28;20044;-57
2024/02/10 02:29:21;;;;;;;1.48;0.88;;;20.40;46.10;;;;;;5054197;28;20033;-56
2024/02/10 02:31:47;;;;;;;1.00;0.65;;;20.40;46.10;;;;;;5053393;28;20399;-56
2024/02/10 02:34:13;;;;;;;1.85;0.70;;;20.40;46.20;;;;;;5054357;28;20115;-56
2024/02/10 02:36:39;;;;;;;1.60;0.73;;;20.50;46.20;;;;;;5053868;28;20463;-57
2024/02/10 02:39:05;;;;;;;0.88;0.70;;;20.40;46.20;;;;;;5053728;28;20056;-59
2024/02/10 02:41:32;;;;;;;1.63;0.90;;;20.40;46.20;;;;;;5053596;28;20040;-57
2024/02/10 02:43:57;;;;;;;1.77;0.77;;;20.40;46.20;;;;;;5053887;28;20025;-58
2024/02/10 02:46:24;;;;;;;1.40;0.70;;;20.40;46.20;;;;;;5053747;28;20047;-57
2024/02/10 02:48:53;;;;;;;1.58;0.82;;;20.40;46.20;;;;;;5053593;28;20025;-57
2024/02/10 02:51:20;;;;;;;2.17;1.00;;;20.40;46.30;;;;;;5051267;28;20041;-57
2024/02/10 02:53:48;;;;;;;1.35;0.70;;;20.40;46.30;;;;;;5035926;28;20380;-57
2024/02/10 02:56:15;;;;;;;1.05;0.80;;;20.40;46.30;;;;;;5053612;28;20021;-54
2024/02/10 02:58:41;;;;;;;3.88;1.15;;;20.40;46.30;;;;;;5053286;28;20102;-57
2024/02/10 03:01:07;;;;;;;1.00;0.70;;;20.40;46.30;;;;;;5053502;28;20056;-57
2024/02/10 03:03:33;;;;;;;1.13;0.73;;;20.40;46.40;;;;;;5053777;28;20044;-57
2024/02/10 03:05:59;;;;;;;1.55;0.90;;;20.40;46.40;;;;;;5053001;28;20029;-59
2024/02/10 03:08:27;;;;;;;1.10;0.80;;;20.40;46.40;;;;;;5067814;28;20116;-57
2024/02/10 03:10:53;;;;;;;1.77;0.98;;;20.40;46.40;;;;;;5053798;28;20025;-57
2024/02/10 03:13:19;;;;;;;0.70;0.63;;;20.40;46.40;;;;;;5053077;28;20517;-55
2024/02/10 03:15:46;;;;;;;1.20;0.80;;;20.40;46.50;;;;;;5053262;28;20286;-54
2024/02/10 03:18:13;;;;;;;1.92;1.17;;;20.30;46.40;;;;;;5049693;28;20025;-57
2024/02/10 03:20:39;;;;;;;1.30;0.90;;;20.40;46.50;;;;;;5053487;28;20103;-57
2024/02/10 03:23:07;;;;;;;1.20;0.88;;;20.40;46.50;;;;;;5052462;28;20033;-55
2024/02/10 03:25:33;;;;;;;1.05;0.70;;;20.30;46.50;;;;;;5053385;28;20040;-58
2024/02/10 03:28:02;;;;;;;1.52;0.90;;;20.30;46.50;;;;;;5053074;28;20033;-56
2024/02/10 03:30:28;;;;;;;2.33;0.80;;;20.30;46.50;;;;;;5053168;28;20147;-57
2024/02/10 03:32:55;;;;;;;1.40;0.90;;;20.30;46.50;;;;;;5052888;28;20909;-59
2024/02/10 03:35:21;;;;;;;1.33;0.70;;;20.30;46.50;;;;;;5050450;28;20025;-57
2024/02/10 03:37:47;;;;;;;1.95;0.90;;;20.30;46.60;;;;;;5053314;28;20017;-56
2024/02/10 03:40:19;;;;;;;1.45;0.65;;;20.30;46.60;;;;;;5052479;28;20440;-58
2024/02/10 03:42:46;;;;;;;1.33;0.75;;;20.30;46.60;;;;;;5052475;28;20427;-57
2024/02/10 03:45:14;;;;;;;1.27;0.70;;;20.30;46.60;;;;;;5052108;28;20443;-58
2024/02/10 03:47:44;;;;;;;1.00;0.70;;;20.30;46.60;;;;;;5053151;28;20112;-57
2024/02/10 03:50:11;;;;;;;1.40;0.88;;;20.30;46.60;;;;;;5051471;28;20383;-59
2024/02/10 03:52:37;;;;;;;1.90;0.88;;;20.30;46.60;;;;;;5034707;28;20021;-58
2024/02/10 03:55:03;;;;;;;1.10;0.80;;;20.30;46.70;;;;;;5052757;28;20363;-55
2024/02/10 03:57:30;;;;;;;2.63;0.98;;;20.30;46.60;;;;;;5052377;28;20436;-56
2024/02/10 03:59:56;;;;;;;1.00;0.70;;;20.20;46.60;;;;;;5052277;28;20466;-56
2024/02/10 04:02:22;;;;;;;1.05;0.75;;;20.30;46.70;;;;;;5052982;28;20075;-57
2024/02/10 04:04:50;;;;;;;1.77;0.77;;;20.30;46.70;;;;;;5051935;28;20036;-58
2024/02/10 04:07:16;;;;;;;1.42;0.85;;;20.30;47.30;;;;;;5052404;28;20040;-57
2024/02/10 04:09:42;;;;;;;1.20;0.80;;;20.30;46.80;;;;;;5051923;28;20025;-57
2024/02/10 04:12:09;;;;;;;1.83;0.88;;;20.30;46.80;;;;;;5052554;28;20494;-58
2024/02/10 04:14:34;;;;;;;1.00;0.65;;;20.30;46.80;;;;;;5051799;28;20037;-57
2024/02/10 04:17:00;;;;;;;0.85;0.60;;;20.30;46.80;;;;;;5052159;28;20374;-53
2024/02/10 04:19:26;;;;;;;1.08;0.70;;;20.30;46.80;;;;;;5051287;28;20041;-58
2024/02/10 04:21:52;;;;;;;1.63;0.82;;;20.30;46.80;;;;;;5052162;28;20045;-56
2024/02/10 04:24:19;;;;;;;1.00;0.70;;;20.30;46.80;;;;;;5052379;28;20115;-56
2024/02/10 04:26:45;;;;;;;1.10;0.75;;;20.20;46.80;;;;;;5051780;28;20378;-59
2024/02/10 04:29:14;;;;;;;1.02;0.75;;;20.20;46.80;;;;;;5052658;28;20116;-58
2024/02/10 04:31:40;;;;;;;1.27;0.60;;;20.30;46.80;;;;;;5052480;28;20025;-56
2024/02/10 04:34:06;;;;;;;0.93;0.75;;;20.20;46.80;;;;;;5051703;28;20079;-58
2024/02/10 04:36:35;;;;;;;1.40;0.90;;;20.20;46.80;;;;;;5051942;28;20053;-58
2024/02/10 04:39:04;;;;;;;1.50;0.82;;;20.20;46.80;;;;;;5051859;28;20029;-57
2024/02/10 04:41:33;;;;;;;1.33;0.80;;;20.20;46.80;;;;;;5052184;28;20136;-54
2024/02/10 04:43:58;;;;;;;1.58;0.95;;;20.20;46.80;;;;;;5050816;28;20033;-57
2024/02/10 04:46:24;;;;;;;1.77;0.80;;;20.20;46.80;;;;;;5052040;28;20029;-55
2024/02/10 04:48:52;;;;;;;1.25;0.70;;;20.20;46.80;;;;;;5052074;28;20021;-56
2024/02/10 04:51:26;;;;;;;2.33;0.90;;;20.20;46.80;;;;;;5051526;28;20371;-56
2024/02/10 04:53:52;;;;;;;1.85;1.00;;;20.20;46.80;;;;;;5052191;28;20348;-58
2024/02/10 04:56:20;;;;;;;2.80;0.70;;;20.20;46.80;;;;;;5049351;28;20031;-57
2024/02/10 04:58:49;;;;;;;0.90;0.70;;;20.20;46.80;;;;;;5052062;28;20028;-55
2024/02/10 05:01:19;;;;;;;2.65;0.73;;;20.20;46.80;;;;;;5052151;28;20037;-57
2024/02/10 05:03:46;;;;;;;1.10;0.60;;;20.20;46.80;;;;;;5051157;28;20044;-57
2024/02/10 05:06:12;;;;;;;1.58;0.90;;;20.10;46.80;;;;;;5051472;28;20399;-56
2024/02/10 05:08:38;;;;;;;1.45;0.75;;;20.20;46.80;;;;;;5052024;28;20041;-56
2024/02/10 05:11:04;;;;;;;1.10;0.80;;;20.20;46.80;;;;;;5051276;28;20037;-58
2024/02/10 05:13:30;;;;;;;1.85;0.80;;;20.20;46.80;;;;;;5052160;28;20025;-57
2024/02/10 05:15:56;;;;;;;1.35;0.80;;;20.10;46.80;;;;;;5051933;28;20501;-56
2024/02/10 05:18:22;;;;;;;1.33;0.82;;;20.10;46.80;;;;;;5052621;28;20033;-56
2024/02/10 05:20:48;;;;;;;1.60;0.70;;;20.10;46.80;;;;;;5051629;28;20066;-55
2024/02/10 05:23:16;;;;;;;1.13;0.90;;;20.10;46.80;;;;;;5052024;28;20041;-57
2024/02/10 05:25:43;;;;;;;0.98;0.70;;;20.10;46.80;;;;;;5051645;28;20021;-56
2024/02/10 05:28:08;;;;;;;1.25;0.80;;;20.10;46.80;;;;;;5052142;28;20126;-56
2024/02/10 05:30:34;;;;;;;1.20;0.80;;;20.10;46.80;;;;;;5055084;28;20065;-57
2024/02/10 05:33:02;;;;;;;1.20;0.70;;;20.10;46.80;;;;;;5053036;28;20029;-57
2024/02/10 05:35:29;;;;;;;1.05;0.70;;;20.10;46.80;;;;;;5054043;28;20427;-56
2024/02/10 05:37:57;;;;;;;1.40;0.80;;;20.10;46.80;;;;;;5054125;28;20055;-56
2024/02/10 05:40:30;;;;;;;1.45;0.73;;;20.10;46.80;;;;;;5055508;28;20025;-58
2024/02/10 05:42:58;;;;;;;2.95;1.15;;;20.10;46.80;;;;;;5054993;28;20060;-57
2024/02/10 05:45:25;;;;;;;1.58;0.70;;;20.10;46.80;;;;;;5054995;28;20364;-56
2024/02/10 05:47:52;;;;;;;3.90;0.75;;;20.10;46.80;;;;;;5055161;28;20032;-54
2024/02/10 05:50:19;;;;;;;1.58;0.98;;;20.10;46.80;;;;;;5054685;28;20021;-55
2024/02/10 05:52:49;;;;;;;1.83;0.85;;;20.10;46.80;;;;;;5054738;28;20040;-60
2024/02/10 05:55:25;;;;;;;1.63;0.77;;;20.10;46.90;;;;;;5035584;28;20061;-57
2024/02/10 05:57:55;;;;;;;1.10;0.70;;;20.10;46.80;;;;;;5054464;28;20040;-58
2024/02/10 06:00:22;;;;;;;1.75;0.70;;;20.10;46.90;;;;;;5054642;28;20052;-54
2024/02/10 06:02:48;;;;;;;1.52;0.85;;;20.10;47.00;;;;;;5054625;28;20037;-55
2024/02/10 06:05:15;;;;;;;2.15;0.82;;;20.10;47.00;;;;;;5053410;28;20364;-56
2024/02/10 06:07:44;;;;;;;1.30;0.80;;;20.10;47.00;;;;;;5052559;28;20029;-55
2024/02/10 06:10:15;;;;;;;1.80;0.95;;;20.10;47.00;;;;;;5055282;28;20644;-57
2024/02/10 06:12:45;;;;;;;1.60;0.90;;;20.10;47.00;;;;;;5054382;28;20035;-58
2024/02/10 06:15:12;;;;;;;1.17;0.70;;;20.10;47.00;;;;;;5054450;28;20036;-54
2024/02/10 06:17:49;;;;;;;1.50;0.60;;;20.10;47.00;;;;;;5054221;28;20041;-60
2024/02/10 06:20:14;;;;;;;1.20;0.80;;;20.00;46.90;;;;;;5053119;28;20098;-55
2024/02/10 06:22:50;;;;;;;1.48;0.80;;;20.10;47.00;;;;;;5054228;28;20048;-57
2024/02/10 06:25:22;;;;;;;1.48;0.82;;;20.00;46.90;;;;;;5053934;28;20090;-57
2024/02/10 06:27:56;;;;;;;1.25;0.75;;;20.10;46.90;;;;;;5052860;28;20029;-55
2024/02/10 06:30:24;;;;;;;1.27;0.80;;;20.00;46.90;;;;;;5054393;28;20021;-53
2024/02/10 06:32:50;;;;;;;1.13;0.85;;;20.00;46.90;;;;;;5051917;28;20059;-56
2024/02/10 06:35:19;;;;;;;1.15;0.70;;;20.00;46.90;;;;;;5053610;28;20028;-56
2024/02/10 06:37:47;;;;;;;1.80;0.80;;;20.00;46.90;;;;;;5054406;28;20052;-58
2024/02/10 06:40:14;;;;;;;1.13;0.63;;;20.00;46.90;;;;;;5050108;28;20333;-55
2024/02/10 06:42:42;;;;;;;1.23;0.80;;;20.00;46.90;;;;;;5053342;28;20459;-56
2024/02/10 06:45:15;;;;;;;0.90;0.63;;;20.00;46.90;;;;;;5053869;28;20215;-55
2024/02/10 06:47:45;;;;;;;1.42;0.60;;;20.00;46.90;;;;;;5052808;28;20021;-56
2024/02/10 06:50:13;;;;;;;0.95;0.68;;;20.00;46.90;;;;;;5053533;28;20031;-57
2024/02/10 06:52:40;;;;;;;1.13;0.70;;;20.00;46.90;;;;;;5053363;28;20044;-56
2024/02/10 06:55:12;;;;;;;1.50;0.80;;;20.00;46.90;;;;;;5053417;28;20061;-57
2024/02/10 06:57:42;;;;;;;1.33;0.80;;;20.00;46.90;;;;;;5053409;28;20048;-58
2024/02/10 07:00:15;;;;;;;1.17;0.73;;;20.00;46.90;;;;;;5051784;28;20029;-56
2024/02/10 07:02:43;;;;;;;1.90;0.93;;;20.00;46.90;;;;;;5053002;28;20045;-56
2024/02/10 07:05:12;;;;;;;0.98;0.63;;;20.00;46.90;;;;;;5052941;28;20455;-56
2024/02/10 07:07:41;;;;;;;1.25;0.90;;;20.00;46.90;;;;;;5053970;28;20075;-55
2024/02/10 07:10:13;;;;;;;1.08;0.90;;;19.90;46.90;;;;;;5035647;28;20517;-54
2024/02/10 07:12:42;;;;;;;1.00;0.90;;;20.00;46.90;;;;;;5053628;28;20029;-57
2024/02/10 07:15:13;;;;;;;0.65;0.57;;;19.90;46.80;;;;;;5053203;28;20415;-58
2024/02/10 07:17:43;;;;;;;1.70;0.75;;;20.00;46.90;;;;;;5053522;28;20094;-55
2024/02/10 07:20:25;;;;;;;2.15;1.10;;;19.90;46.80;;;;;;5052284;28;20094;-58
2024/02/10 07:22:57;;;;;;;1.23;0.70;;;20.00;46.90;;;;;;5052886;28;20134;-55
2024/02/10 07:25:24;;;;;;;1.10;0.70;;;20.00;46.90;;;;;;5053371;28;20079;-57
2024/02/10 07:27:51;;;;;;;0.88;0.80;;;19.90;47.50;;;;;;5053363;28;20029;-60
2024/02/10 07:30:21;;;;;;;0.95;0.70;;;20.00;46.90;;;;;;5034910;28;20386;-55
2024/02/10 07:32:50;;;;;;;0.82;0.70;;;20.00;46.90;;;;;;5053022;28;20110;-55
2024/02/10 07:35:16;;;;;;;0.77;0.60;;;20.00;46.90;;;;;;5052549;28;20033;-58
2024/02/10 07:37:46;;;;;;;2.08;0.95;;;20.00;46.90;;;;;;5052995;28;20033;-58
2024/02/10 07:40:12;;;;;;;1.10;0.85;;;19.90;46.90;;;;;;5052618;28;20037;-56
2024/02/10 07:42:38;;;;;;;1.13;0.80;;;20.00;46.90;;;;;;5053140;28;20427;-55
2024/02/10 07:45:04;;;;;;;1.20;0.73;;;19.90;46.80;;;;;;5052668;28;20059;-60
2024/02/10 07:47:30;;;;;;;0.95;0.68;;;20.00;47.50;;;;;;5053141;28;20082;-57
2024/02/10 07:49:58;;;;;;;1.42;0.90;;;19.90;46.90;;;;;;5052206;28;20024;-55
2024/02/10 07:52:28;;;;;;;2.22;0.90;;;19.90;46.90;;;;;;5052068;28;20470;-57
2024/02/10 07:54:56;;;;;;;1.05;0.73;;;20.00;46.90;;;;;;5050836;28;20064;-56
2024/02/10 07:57:23;;;;;;;1.58;0.85;;;20.00;46.90;;;;;;5052625;28;20071;-57
2024/02/10 07:59:53;;;;;;;1.63;0.73;;;19.90;46.90;;;;;;5052402;28;20036;-57
2024/02/10 08:02:21;;;;;;;2.35;0.90;;;20.00;46.90;;;;;;5050206;28;20487;-56
2024/02/10 08:04:54;;;;;;;1.77;0.80;;;19.90;46.90;;;;;;5052604;28;20044;-57
2024/02/10 08:07:21;;;;;;;1.30;1.00;;;20.00;46.90;;;;;;5052305;28;20451;-54
2024/02/10 08:09:48;;;;;;;1.42;0.90;;;19.90;46.90;;;;;;5052300;28;20444;-55
2024/02/10 08:12:23;;;;;;;1.30;0.85;;;20.00;46.90;;;;;;5052514;28;20032;-57
2024/02/10 08:14:50;;;;;;;0.82;0.70;;;20.00;46.90;;;;;;5052118;28;21597;-56
2024/02/10 08:17:17;;;;;;;1.52;0.90;;;20.00;46.90;;;;;;5051708;28;20053;-59
2024/02/10 08:19:43;;;;;;;1.00;0.70;;;20.00;46.90;;;;;;5052456;28;20045;-58
2024/02/10 08:22:11;;;;;;;1.52;1.08;;;20.00;46.90;;;;;;5052092;28;20045;-57
2024/02/10 08:24:40;;;;;;;1.40;0.80;;;20.00;46.90;;;;;;5051976;28;20324;-59
2024/02/10 08:27:09;;;;;;;2.03;0.73;;;19.90;46.80;;;;;;5033105;28;20045;-59
2024/02/10 08:29:42;;;;;;;2.00;0.93;;;20.00;47.20;;;;;;5051662;28;20067;-57
2024/02/10 08:32:13;;;;;;;1.60;0.88;;;20.00;47.30;;;;;;5052150;28;20339;-58
2024/02/10 08:34:42;;;;;;;2.08;0.90;;;20.00;47.20;;;;;;5051217;28;20471;-58
2024/02/10 08:37:12;;;;;;;1.08;0.60;;;20.00;47.20;;;;;;5051736;28;20047;-56
2024/02/10 08:39:45;;;;;;;1.25;0.80;;;20.00;47.10;;;;;;5050438;28;20101;-56
2024/02/10 08:42:12;;;;;;;1.20;0.70;;;20.00;47.10;;;;;;5034180;28;20372;-57
2024/02/10 08:44:38;;;;;;;1.20;0.80;;;20.00;47.10;;;;;;5049985;28;20056;-55
2024/02/10 08:47:06;;;;;;;1.40;0.90;;;20.00;47.00;;;;;;5051903;28;20025;-57
2024/02/10 08:49:36;;;;;;;2.22;1.02;;;20.00;47.00;;;;;;5051319;28;20086;-59
2024/02/10 08:52:03;;;;;;;3.50;0.90;;;20.00;47.00;;;;;;5052029;28;20116;-56
2024/02/10 08:54:32;;;;;;;2.10;1.00;;;20.00;47.00;;;;;;5034078;28;20039;-56
2024/02/10 08:57:02;;;;;;;2.05;0.90;;;20.00;47.00;;;;;;5051959;28;20116;-56
2024/02/10 08:59:31;;;;;;;1.88;1.00;;;20.00;47.00;;;;;;5052272;28;20427;-56
2024/02/10 09:02:00;;;;;;;0.90;0.60;;;20.00;46.90;;;;;;5051197;28;20478;-57
2024/02/10 09:04:30;;;;;;;1.80;0.50;;;20.00;46.90;;;;;;5051889;28;20079;-58
2024/02/10 09:06:56;;;;;;;1.23;0.60;;;20.00;47.00;;;;;;5055999;28;20036;-58
2024/02/10 09:09:23;;;;;;;1.58;0.77;;;20.00;47.00;;;;;;5055396;28;20086;-56
2024/02/10 09:11:49;;;;;;;0.80;0.60;;;20.00;47.00;;;;;;5055227;28;20064;-58
2024/02/10 09:14:15;;;;;;;1.10;0.75;;;20.00;47.00;;;;;;5055827;28;20412;-59
2024/02/10 09:16:41;;;;;;;1.00;0.73;;;20.00;47.00;;;;;;5055114;28;20079;-58
2024/02/10 09:19:07;;;;;;;0.85;0.63;;;20.00;47.00;;;;;;5055352;28;20025;-58
2024/02/10 09:21:32;;;;;;;1.17;0.70;;;20.00;47.00;;;;;;5055450;28;20048;-58
2024/02/10 09:23:58;;;;;;;1.95;1.00;;;20.00;47.00;;;;;;5055148;28;20499;-57
2024/02/10 09:26:27;;;;;;;1.58;0.98;;;20.00;47.00;;;;;;5055627;28;20052;-58
2024/02/10 09:28:53;;;;;;;1.90;1.20;;;20.00;47.00;;;;;;5056075;28;20428;-58
2024/02/10 09:31:19;;;;;;;1.30;0.90;;;20.00;47.00;;;;;;5055290;28;20060;-55
2024/02/10 09:33:45;;;;;;;1.60;1.00;;;20.00;47.00;;;;;;5056419;28;20158;-55
2024/02/10 09:36:14;;;;;;;2.10;1.02;;;20.00;47.00;;;;;;5056168;28;20040;-58
2024/02/10 09:38:41;;;;;;;1.58;1.00;;;20.00;47.00;;;;;;5055853;28;20040;-57
2024/02/10 09:41:11;;;;;;;1.55;0.80;;;20.00;47.00;;;;;;5056750;28;20033;-56
2024/02/10 09:43:38;;;;;;;1.15;0.90;;;20.00;47.10;;;;;;5055224;28;20112;-57
2024/02/10 09:46:10;;;;;;;1.85;1.00;;;20.00;47.10;;;;;;5055436;28;20028;-56
2024/02/10 09:48:43;;;;;;;1.33;1.02;;;20.00;47.10;;;;;;5055172;28;20041;-56
2024/02/10 09:51:08;;;;;;;1.50;0.90;;;20.10;47.10;;;;;;5054692;28;20036;-59
2024/02/10 09:53:35;;;;;;;1.52;1.02;;;20.00;47.10;;;;;;5054772;28;20033;-57
2024/02/10 09:56:01;;;;;;;1.13;0.80;;;20.10;47.10;;;;;;5055067;28;20055;-55
2024/02/10 09:58:28;;;;;;;1.95;1.17;;;20.10;47.10;;;;;;5054821;28;20017;-56
2024/02/10 10:00:54;;;;;;;1.73;1.00;;;20.10;47.10;;;;;;5054506;28;20024;-56
2024/02/10 10:03:21;;;;;;;2.42;1.23;;;20.10;47.00;;;;;;5054888;28;20043;-59
2024/02/10 10:05:49;;;;;;;1.35;0.93;;;20.10;47.00;;;;;;5055198;28;20063;-59
2024/02/10 10:08:21;;;;;;;1.88;1.10;;;20.10;47.00;;;;;;5054367;28;20139;-58
2024/02/10 10:10:49;;;;;;;1.08;0.82;;;20.10;47.00;;;;;;5055433;28;20079;-58
2024/02/10 10:13:15;;;;;;;1.13;0.88;;;20.20;47.00;;;;;;5053878;28;20044;-55
2024/02/10 10:15:41;;;;;;;1.20;0.82;;;20.20;47.00;;;;;;5053117;28;20029;-54
2024/02/10 10:18:16;;;;;;;1.65;0.80;;;20.20;47.00;;;;;;5055219;28;20083;-56
2024/02/10 10:20:46;;;;;;;1.33;0.80;;;20.20;46.90;;;;;;5054302;28;20049;-55
2024/02/10 10:23:14;;;;;;;1.58;0.85;;;20.20;46.90;;;;;;5055602;28;20501;-56
2024/02/10 10:25:43;;;;;;;1.05;0.73;;;20.30;46.90;;;;;;5056901;28;20029;-57
2024/02/10 10:28:13;;;;;;;1.38;0.93;;;20.30;46.80;;;;;;5056498;28;20414;-56
2024/02/10 10:30:46;;;;;;;1.10;0.95;;;20.30;46.80;;;;;;5055052;28;20037;-57
2024/02/10 10:33:12;;;;;;;1.75;0.88;;;20.30;46.80;;;;;;5053843;28;20355;-54
2024/02/10 10:35:40;;;;;;;1.50;1.00;;;20.40;46.80;;;;;;5055438;28;20029;-56
2024/02/10 10:38:10;;;;;;;1.73;0.90;;;20.30;46.60;;;;;;5053571;28;20037;-54
2024/02/10 10:40:36;;;;;;;1.05;0.80;;;20.40;46.60;;;;;;5052024;28;20091;-54
2024/02/10 10:43:10;;;;;;;1.20;0.90;;;20.40;46.60;;;;;;5054613;28;20048;-58
2024/02/10 10:45:37;;;;;;;1.77;1.08;;;20.40;46.60;;;;;;5053960;28;20332;-57
2024/02/10 10:48:04;;;;;;;0.98;0.80;;;20.40;46.60;;;;;;5055434;28;20028;-57
2024/02/10 10:50:34;;;;;;;1.30;1.08;;;20.40;46.50;;;;;;5054732;28;20044;-56
2024/02/10 10:53:06;;;;;;;1.52;0.80;;;20.40;46.50;;;;;;5052689;28;20405;-57
2024/02/10 10:55:43;;;;;;;2.03;0.98;;;20.40;46.50;;;;;;5055351;28;20459;-56
2024/02/10 10:58:16;;;;;;;1.67;0.98;;;20.40;46.40;;;;;;5054131;28;20148;-58
2024/02/10 11:00:46;;;;;;;1.43;1.07;;;20.50;46.50;;;;;;5053338;28;20447;-54
2024/02/10 11:03:16;;;;;;;1.38;0.85;;;20.50;46.40;;;;;;5053399;28;20037;-57
2024/02/10 11:05:43;;;;;;;1.90;0.70;;;20.50;46.40;;;;;;5053328;28;20044;-56
2024/02/10 11:08:13;;;;;;;2.88;0.90;;;20.50;46.30;;;;;;5054179;28;20028;-59
2024/02/10 11:10:48;;;;;;;2.45;0.90;;;20.50;46.40;;;;;;5053885;28;20443;-58
2024/02/10 11:13:21;;;;;;;2.28;1.05;;;20.50;46.80;;;;;;5053659;28;20071;-58
2024/02/10 11:16:12;;;;;;;2.58;0.80;;;20.60;47.00;;;;;;5068207;28;20397;-57
2024/02/10 11:18:43;;;;;;;2.30;1.10;;;20.60;47.00;;;;;;5053387;28;20029;-57
2024/02/10 11:21:25;;;;;;;3.10;0.90;;;20.70;47.00;;;;;;5052420;28;20371;-57
2024/02/10 11:24:01;;;;;;;1.52;0.90;;;20.70;46.90;;;;;;5053025;28;20041;-57
2024/02/10 11:26:29;;;;;;;2.88;1.08;;;20.70;46.80;;;;;;5051704;28;20043;-58
2024/02/10 11:29:20;;;;;;;2.10;0.95;;;20.70;46.80;;;;;;5052531;28;20108;-52
2024/02/10 11:31:47;;;;;;;2.45;0.80;;;20.70;46.70;;;;;;5052416;28;20029;-52
2024/02/10 11:34:17;;;;;;;2.20;0.85;;;20.70;46.70;;;;;;5052497;28;20025;-53
2024/02/10 11:36:51;;;;;;;1.33;0.90;;;20.70;46.70;;;;;;5053138;28;20037;-56
2024/02/10 11:39:24;;;;;;;1.15;0.70;;;20.80;46.70;;;;;;5035177;28;20113;-49
2024/02/10 11:41:58;;;;;;;2.05;0.70;;;20.80;46.70;;;;;;5052640;28;20040;-55
2024/02/10 11:44:28;;;;;;;1.60;0.60;;;20.80;46.70;;;;;;5052550;28;20466;-57
2024/02/10 11:46:56;;;;;;;1.02;0.60;;;20.80;46.70;;;;;;5052873;28;20064;-57
2024/02/10 11:49:23;;;;;;;1.35;0.80;;;20.80;46.70;;;;;;5052427;28;20032;-55
2024/02/10 11:51:53;;;;;;;1.50;0.75;;;20.80;46.70;;;;;;5052937;28;20052;-54
2024/02/10 11:54:19;;;;;;;3.85;0.90;;;20.80;46.70;;;;;;5052624;28;20039;-55
2024/02/10 11:56:47;;;;;;;1.05;0.70;;;20.80;46.70;;;;;;5052357;28;20041;-53
2024/02/10 11:59:13;;;;;;;1.23;0.68;;;20.80;46.70;;;;;;5053525;28;20111;-56
2024/02/10 12:01:40;;;;;;;0.95;0.70;;;20.80;46.70;;;;;;5053886;28;20025;-56
2024/02/10 12:04:06;;;;;;;1.25;0.55;;;20.80;46.70;;;;;;5053574;28;20471;-56
2024/02/10 12:06:36;;;;;;;1.30;0.60;;;20.80;46.70;;;;;;5053392;28;20036;-57
2024/02/10 12:09:04;;;;;;;1.30;0.70;;;20.80;46.70;;;;;;5034997;28;20024;-56
2024/02/10 12:11:30;;;;;;;1.77;0.60;;;20.80;46.70;;;;;;5052414;28;20037;-56
2024/02/10 12:13:59;;;;;;;1.67;0.70;;;20.90;46.80;;;;;;5052996;28;20035;-60
2024/02/10 12:16:27;;;;;;;1.40;0.73;;;20.90;46.80;;;;;;5052464;28;20043;-53
2024/02/10 12:18:55;;;;;;;0.65;0.65;;;20.90;46.80;;;;;;5051823;28;20029;-51
2024/02/10 12:21:24;;;;;;;0.80;0.75;;;20.90;46.70;;;;;;5053628;28;20059;-52
2024/02/10 12:23:53;;;;;;;1.15;0.85;;;20.90;46.80;;;;;;5052729;28;20041;-51
2024/02/10 12:26:23;;;;;;;1.20;0.60;;;20.90;46.70;;;;;;5049586;28;20020;-57
2024/02/10 12:28:51;;;;;;;1.08;0.65;;;21.00;46.70;;;;;;5052063;28;20466;-55
2024/02/10 12:31:18;;;;;;;0.95;0.60;;;20.90;46.70;;;;;;5053247;28;20025;-65
2024/02/10 12:33:44;;;;;;;1.27;0.63;;;20.90;46.70;;;;;;5052036;28;20037;-57
2024/02/10 12:36:11;;;;;;;1.30;0.80;;;20.90;46.70;;;;;;5054373;28;20033;-59
2024/02/10 12:38:38;;;;;;;1.20;0.60;;;20.90;46.60;;;;;;5054437;28;20040;-57
2024/02/10 12:41:04;;;;;;;0.93;0.50;;;20.90;46.60;;;;;;5057843;28;20037;-55
2024/02/10 12:43:31;;;;;;;1.50;0.82;;;20.90;46.50;;;;;;5057427;28;20482;-54
2024/02/10 12:45:57;;;;;;;1.23;0.77;;;20.90;46.50;;;;;;5057365;28;20048;-56
2024/02/10 12:48:22;;;;;;;0.70;0.57;;;20.90;46.40;;;;;;5057452;28;20025;-56
2024/02/10 12:50:49;;;;;;;2.58;0.75;;;20.90;46.40;;;;;;5056445;28;20107;-57
2024/02/10 12:53:18;;;;;;;1.02;0.75;;;20.90;46.30;;;;;;5056902;28;20033;-55